Time;durP1;ratioP1;P1;durP2;ratioP2;P2;SDS_P1;SDS_P2;PMS_P1;PMS_P2;Temp;Humidity;BMP_temperature;BMP_pressure;BME280_temperature;BME280_humidity;BME280_pressure;Samples;Min_cycle;Max_cycle;Signal;HPM_P1;HPM_P2
2023/09/08 00:00:24;;;;;;;0.93;0.50;;;;;;;16.16;74.53;102298.69;5045435;28;20053;-77
2023/09/08 00:02:51;;;;;;;3.33;0.45;;;;;;;16.14;74.61;102294.38;5048094;28;20056;-77
2023/09/08 00:05:18;;;;;;;5.40;0.50;;;;;;;16.15;74.63;102299.59;5045295;28;20133;-76
2023/09/08 00:07:45;;;;;;;4.75;0.40;;;;;;;16.16;74.65;102297.84;5045875;28;20041;-76
2023/09/08 00:10:13;;;;;;;3.42;0.30;;;;;;;16.15;74.55;102304.00;5043432;28;20056;-76
2023/09/08 00:12:40;;;;;;;1.15;0.30;;;;;;;16.15;74.70;102293.47;5046419;28;20045;-76
2023/09/08 00:15:08;;;;;;;3.60;0.65;;;;;;;16.15;75.17;102299.59;5044074;28;20049;-76
2023/09/08 00:17:36;;;;;;;3.50;0.60;;;;;;;16.13;75.08;102300.53;5045930;28;20047;-78
2023/09/08 00:20:05;;;;;;;4.07;0.40;;;;;;;16.13;74.96;102300.53;5045221;28;20041;-76
2023/09/08 00:22:32;;;;;;;2.20;0.30;;;;;;;16.15;74.97;102304.00;5045842;28;20041;-76
2023/09/08 00:24:59;;;;;;;1.20;0.40;;;;;;;16.14;74.83;102297.88;5045640;28;20047;-76
2023/09/08 00:27:28;;;;;;;2.33;0.38;;;;;;;16.14;74.85;102297.00;5042948;28;20045;-76
2023/09/08 00:29:54;;;;;;;1.48;0.40;;;;;;;16.13;74.67;102301.38;5041935;28;20055;-76
2023/09/08 00:32:21;;;;;;;2.47;0.40;;;;;;;16.13;74.55;102303.16;5044068;28;20397;-73
2023/09/08 00:34:48;;;;;;;3.00;0.30;;;;;;;16.11;74.24;102292.66;5044103;28;20048;-74
2023/09/08 00:37:15;;;;;;;2.45;0.47;;;;;;;16.12;74.34;102293.53;5042960;28;20053;-73
2023/09/08 00:39:42;;;;;;;2.03;0.40;;;;;;;16.04;74.10;102283.09;5044715;28;20048;-73
2023/09/08 00:42:09;;;;;;;1.67;0.40;;;;;;;16.10;74.15;102290.03;5044054;28;20138;-73
2023/09/08 00:44:37;;;;;;;2.10;0.50;;;;;;;16.07;74.46;102290.94;5041804;28;20363;-73
2023/09/08 00:47:05;;;;;;;2.45;0.40;;;;;;;16.07;74.42;102295.38;5044530;28;20053;-73
2023/09/08 00:49:32;;;;;;;1.58;0.35;;;;;;;16.06;74.45;102288.34;5044470;28;20060;-73
2023/09/08 00:51:59;;;;;;;1.52;0.30;;;;;;;16.04;74.35;102279.59;5041817;28;20068;-72
2023/09/08 00:54:26;;;;;;;2.03;0.30;;;;;;;16.02;74.43;102284.03;5049855;28;20045;-76
2023/09/08 00:56:56;;;;;;;2.45;1.15;;;;;;;16.03;74.24;102285.78;5041510;28;20045;-77
2023/09/08 00:59:24;;;;;;;1.38;0.50;;;;;;;16.02;74.50;102286.66;5044939;28;20063;-76
2023/09/08 01:01:53;;;;;;;1.83;0.50;;;;;;;15.98;74.61;102280.56;5049496;28;20048;-77
2023/09/08 01:04:19;;;;;;;2.05;0.30;;;;;;;15.99;74.33;102284.06;5047933;28;20124;-77
2023/09/08 01:06:47;;;;;;;2.72;0.50;;;;;;;15.97;74.41;102273.56;5045994;28;20051;-76
2023/09/08 01:09:15;;;;;;;2.97;0.40;;;;;;;15.95;74.55;102265.69;5047871;28;20051;-77
2023/09/08 01:11:42;;;;;;;2.38;0.50;;;;;;;15.96;74.47;102272.69;5047265;28;20086;-77
2023/09/08 01:14:09;;;;;;;1.65;0.40;;;;;;;15.95;74.28;102280.63;5045218;28;20056;-76
2023/09/08 01:16:37;;;;;;;4.68;0.40;;;;;;;15.93;74.24;102278.00;5045928;28;20513;-77
2023/09/08 01:19:08;;;;;;;3.63;0.50;;;;;;;15.92;74.58;102275.41;5046169;28;20049;-75
2023/09/08 01:22:18;;;;;;;1.75;0.40;;;;;;;15.92;74.31;102276.28;5049721;28;20041;-76
2023/09/08 01:25:13;;;;;;;1.63;0.52;;;;;;;15.82;74.25;102264.13;5045572;28;20421;-77
2023/09/08 01:27:44;;;;;;;1.67;0.47;;;;;;;15.87;74.22;102274.63;5047333;28;20414;-77
2023/09/08 01:30:13;;;;;;;4.13;0.47;;;;;;;15.86;74.36;102271.13;5047947;28;20037;-76
2023/09/08 01:32:41;;;;;;;3.60;0.47;;;;;;;15.85;74.33;102279.03;5047175;28;20052;-76
2023/09/08 01:35:10;;;;;;;2.25;0.43;;;;;;;15.84;74.50;102277.31;5048454;28;20045;-76
2023/09/08 01:37:37;;;;;;;3.58;0.40;;;;;;;15.82;74.29;102274.69;5047894;28;21289;-76
2023/09/08 01:40:07;;;;;;;0.80;0.40;;;;;;;15.80;74.44;102276.50;5049299;28;20041;-77
2023/09/08 01:42:34;;;;;;;5.07;0.60;;;;;;;15.77;74.36;102263.38;5049984;28;20051;-78
2023/09/08 01:45:00;;;;;;;1.13;0.50;;;;;;;15.79;74.43;102277.38;5049889;28;20055;-78
2023/09/08 01:47:30;;;;;;;1.08;0.50;;;;;;;15.77;74.30;102265.09;5049263;28;20057;-78
2023/09/08 01:49:57;;;;;;;3.33;0.30;;;;;;;15.76;74.14;102263.38;5049516;28;20041;-78
2023/09/08 01:52:25;;;;;;;1.75;0.40;;;;;;;15.73;74.30;102274.84;5049597;28;20052;-78
2023/09/08 01:54:52;;;;;;;4.53;0.40;;;;;;;15.71;74.28;102266.09;5048745;28;20332;-77
2023/09/08 01:57:20;;;;;;;5.45;0.50;;;;;;;15.70;74.18;102281.00;5047856;28;20059;-77
2023/09/08 01:59:47;;;;;;;3.42;0.50;;;;;;;15.68;74.30;102263.50;5047953;28;20417;-78
2023/09/08 02:02:15;;;;;;;0.85;0.50;;;;;;;15.66;74.51;102274.03;5048404;28;20052;-73
2023/09/08 02:04:42;;;;;;;8.98;0.82;;;;;;;15.67;74.61;102264.38;5044692;28;20048;-73
2023/09/08 02:07:08;;;;;;;3.42;0.45;;;;;;;15.66;74.65;102262.63;5047743;28;20132;-73
2023/09/08 02:09:37;;;;;;;3.58;1.35;;;;;;;15.65;74.37;102255.59;5046167;28;20053;-75
2023/09/08 02:12:04;;;;;;;4.53;0.52;;;;;;;15.65;74.61;102260.88;5042381;28;20409;-73
2023/09/08 02:14:33;;;;;;;1.77;0.73;;;;;;;15.64;74.38;102253.88;5043220;28;20073;-73
2023/09/08 02:17:00;;;;;;;2.90;0.60;;;;;;;15.63;74.33;102257.41;5041177;28;20045;-73
2023/09/08 02:19:27;;;;;;;5.18;0.80;;;;;;;15.62;74.60;102250.38;5044437;28;20128;-73
2023/09/08 02:21:53;;;;;;;4.60;0.82;;;;;;;15.61;74.59;102254.78;5045410;28;20040;-74
2023/09/08 02:24:20;;;;;;;2.65;0.75;;;;;;;15.60;74.36;102249.56;5043916;28;20069;-74
2023/09/08 02:26:48;;;;;;;1.40;0.63;;;;;;;15.60;74.45;102254.84;5048491;28;20051;-73
2023/09/08 02:29:14;;;;;;;1.77;0.60;;;;;;;15.58;74.60;102249.56;5047251;28;20041;-74
2023/09/08 02:31:43;;;;;;;1.95;0.88;;;;;;;15.58;74.47;102239.03;5047760;28;20049;-73
2023/09/08 02:34:11;;;;;;;3.72;0.60;;;;;;;15.56;74.61;102237.31;5049706;28;20116;-73
2023/09/08 02:36:38;;;;;;;0.80;0.50;;;;;;;15.56;74.60;102234.69;5046304;28;20049;-73
2023/09/08 02:39:05;;;;;;;1.30;0.60;;;;;;;15.53;74.59;102236.47;5048019;28;20060;-73
2023/09/08 02:41:32;;;;;;;1.42;0.60;;;;;;;15.52;74.76;102228.59;5048321;28;20048;-74
2023/09/08 02:43:59;;;;;;;2.13;0.77;;;;;;;15.52;74.49;102228.59;5050510;28;20346;-74
2023/09/08 02:46:26;;;;;;;2.25;0.73;;;;;;;15.49;74.67;102221.63;5050540;28;20619;-73
2023/09/08 02:48:54;;;;;;;2.72;0.70;;;;;;;15.50;74.64;102215.44;5050179;28;20045;-73
2023/09/08 02:51:21;;;;;;;3.30;0.80;;;;;;;15.49;74.90;102218.13;5050054;28;20063;-74
2023/09/08 02:53:48;;;;;;;6.20;0.80;;;;;;;15.48;74.75;102224.25;5049126;28;20059;-77
2023/09/08 02:56:15;;;;;;;1.90;0.70;;;;;;;15.47;74.79;102223.41;5050201;28;20047;-78
2023/09/08 02:58:42;;;;;;;1.73;0.88;;;;;;;15.46;74.88;102221.69;5047464;28;20047;-78
2023/09/08 03:01:14;;;;;;;2.78;1.30;;;;;;;15.46;74.73;102221.69;5052283;28;20047;-78
2023/09/08 03:03:41;;;;;;;3.15;0.90;;;;;;;15.45;74.54;102222.56;5050036;28;20132;-78
2023/09/08 03:06:10;;;;;;;4.30;0.70;;;;;;;15.44;74.70;102220.81;5043163;28;20048;-78
2023/09/08 03:08:37;;;;;;;3.05;0.88;;;;;;;15.40;74.68;102211.25;5052702;28;20561;-77
2023/09/08 03:11:05;;;;;;;4.68;0.90;;;;;;;15.41;74.93;102220.00;5051174;28;20045;-77
2023/09/08 03:13:33;;;;;;;4.68;1.48;;;;;;;15.40;74.64;102224.41;5047227;28;20048;-73
2023/09/08 03:16:05;;;;;;;2.53;1.25;;;;;;;15.40;74.75;102227.03;5048318;28;20080;-74
2023/09/08 03:18:32;;;;;;;3.67;1.42;;;;;;;15.39;74.63;102222.66;5042109;28;20048;-73
2023/09/08 03:21:00;;;;;;;2.83;0.90;;;;;;;15.39;74.75;102227.91;5048064;28;20045;-74
2023/09/08 03:23:28;;;;;;;2.58;0.77;;;;;;;15.37;74.62;102224.47;5047919;28;20052;-73
2023/09/08 03:25:55;;;;;;;1.73;1.27;;;;;;;15.37;74.75;102218.28;5044694;28;20059;-73
2023/09/08 03:28:22;;;;;;;5.43;0.85;;;;;;;15.36;74.83;102222.69;5047936;28;20049;-73
2023/09/08 03:30:49;;;;;;;2.67;1.30;;;;;;;15.36;74.86;102211.31;5046036;28;20166;-73
2023/09/08 03:33:16;;;;;;;4.32;1.10;;;;;;;15.34;74.71;102208.72;5048780;28;20045;-73
2023/09/08 03:35:43;;;;;;;1.50;1.15;;;;;;;15.34;74.74;102208.72;5046906;28;20048;-73
2023/09/08 03:38:10;;;;;;;1.73;0.90;;;;;;;15.33;74.70;102213.97;5044623;28;20045;-73
2023/09/08 03:40:38;;;;;;;2.08;1.00;;;;;;;15.32;74.68;102213.13;5049209;28;20049;-76
2023/09/08 03:43:05;;;;;;;1.58;0.90;;;;;;;15.32;74.61;102212.25;5046841;28;20052;-73
2023/09/08 03:45:32;;;;;;;1.45;1.10;;;;;;;15.30;74.80;102214.91;5046131;28;20064;-73
2023/09/08 03:47:59;;;;;;;2.42;1.33;;;;;;;15.29;74.88;102221.06;5045438;28;20043;-74
2023/09/08 03:50:26;;;;;;;4.13;1.35;;;;;;;15.28;74.96;102216.66;5049043;28;20045;-73
2023/09/08 03:52:53;;;;;;;2.85;1.00;;;;;;;15.25;74.83;102220.25;5044271;28;20041;-73
2023/09/08 03:55:20;;;;;;;3.22;1.23;;;;;;;15.26;75.17;102227.25;5046240;28;20611;-73
2023/09/08 03:57:48;;;;;;;7.25;2.13;;;;;;;15.23;75.09;102214.13;5046541;28;20055;-73
2023/09/08 04:00:19;;;;;;;3.17;1.50;;;;;;;15.23;75.18;102216.75;5048890;28;20047;-73
2023/09/08 04:02:46;;;;;;;3.95;1.60;;;;;;;15.24;75.37;102217.63;5045734;28;20390;-77
2023/09/08 04:05:13;;;;;;;2.05;1.52;;;;;;;15.22;75.26;102216.78;5049132;28;20497;-77
2023/09/08 04:07:40;;;;;;;4.68;2.25;;;;;;;15.22;75.60;102220.25;5049687;28;20055;-77
2023/09/08 04:10:08;;;;;;;2.22;1.83;;;;;;;15.21;75.61;102218.53;5043233;28;20048;-78
2023/09/08 04:12:35;;;;;;;7.85;2.08;;;;;;;15.21;75.59;102218.53;5051496;28;20053;-77
2023/09/08 04:15:04;;;;;;;4.30;2.03;;;;;;;15.16;75.32;102211.59;5047074;28;20395;-77
2023/09/08 04:17:30;;;;;;;6.32;2.53;;;;;;;15.20;75.60;102224.72;5048247;28;20047;-77
2023/09/08 04:19:57;;;;;;;3.90;1.67;;;;;;;15.14;75.62;102208.09;5048064;28;20060;-77
2023/09/08 04:22:24;;;;;;;3.88;2.22;;;;;;;15.20;75.62;102226.47;5047485;28;20053;-76
2023/09/08 04:24:53;;;;;;;4.10;1.73;;;;;;;15.19;75.39;102222.09;5042909;28;20045;-76
2023/09/08 04:27:20;;;;;;;5.25;2.03;;;;;;;15.19;75.65;102224.72;5042705;28;20598;-76
2023/09/08 04:29:46;;;;;;;2.15;1.70;;;;;;;15.17;75.77;102224.75;5045796;28;20041;-77
2023/09/08 04:32:15;;;;;;;2.13;1.85;;;;;;;15.18;75.72;102226.47;5048442;28;20047;-76
2023/09/08 04:34:43;;;;;;;2.45;1.50;;;;;;;15.14;75.84;102216.00;5045792;28;20136;-77
2023/09/08 04:37:10;;;;;;;3.42;1.70;;;;;;;15.17;75.80;102223.84;5048032;28;20149;-77
2023/09/08 04:39:37;;;;;;;2.85;1.85;;;;;;;15.00;76.31;102195.19;5047507;28;20059;-77
2023/09/08 04:42:05;;;;;;;3.17;1.98;;;;;;;15.11;76.23;102218.69;5047872;28;20045;-77
2023/09/08 04:44:32;;;;;;;1.63;1.52;;;;;;;15.10;76.46;102217.81;5044699;28;20053;-77
2023/09/08 04:46:59;;;;;;;4.50;2.25;;;;;;;15.17;76.33;102226.50;5044860;28;20080;-78
2023/09/08 04:49:28;;;;;;;4.05;2.50;;;;;;;15.16;76.55;102219.50;5045273;28;20077;-77
2023/09/08 04:51:55;;;;;;;2.95;2.17;;;;;;;15.16;76.42;102224.75;5047380;28;20049;-77
2023/09/08 04:54:22;;;;;;;5.00;2.40;;;;;;;15.17;76.69;102227.38;5048122;28;20055;-78
2023/09/08 04:56:49;;;;;;;3.38;2.30;;;;;;;15.17;76.83;102227.38;5036162;28;20045;-77
2023/09/08 04:59:16;;;;;;;6.20;3.15;;;;;;;15.13;77.31;102219.53;5048580;28;20102;-77
2023/09/08 05:01:43;;;;;;;5.18;3.15;;;;;;;15.19;77.31;102229.97;5049335;28;20051;-77
2023/09/08 05:04:11;;;;;;;3.60;2.47;;;;;;;15.20;77.34;102226.47;5049038;28;20064;-77
2023/09/08 05:06:39;;;;;;;4.88;3.10;;;;;;;15.21;77.54;102226.44;5039693;28;20048;-77
2023/09/08 05:09:06;;;;;;;4.95;2.88;;;;;;;15.23;77.42;102222.03;5042625;28;20051;-77
2023/09/08 05:11:33;;;;;;;5.35;3.20;;;;;;;15.24;77.80;102218.50;5045877;28;20068;-77
2023/09/08 05:14:00;;;;;;;10.38;3.58;;;;;;;15.26;78.17;102226.38;5046093;28;20763;-78
2023/09/08 05:16:37;;;;;;;7.30;3.75;;;;;;;15.28;78.32;102221.94;5050928;28;20404;-78
2023/09/08 05:19:04;;;;;;;7.60;5.45;;;;;;;15.30;78.51;102228.06;5047724;28;20049;-79
2023/09/08 05:21:31;;;;;;;4.85;4.25;;;;;;;15.31;78.94;102224.53;5047683;28;20617;-80
2023/09/08 05:24:00;;;;;;;12.32;4.72;;;;;;;15.35;78.81;102230.63;5048382;28;20044;-78
2023/09/08 05:26:27;;;;;;;7.22;4.20;;;;;;;15.37;79.08;102227.09;5040869;28;20049;-79
2023/09/08 05:28:54;;;;;;;9.68;5.63;;;;;;;15.40;79.31;102229.69;5049793;28;20047;-78
2023/09/08 05:31:20;;;;;;;8.85;5.40;;;;;;;15.43;79.88;102224.34;5048803;28;20052;-78
2023/09/08 05:33:47;;;;;;;12.98;6.80;;;;;;;15.47;80.06;102223.41;5045868;28;20041;-76
2023/09/08 05:36:14;;;;;;;8.80;5.97;;;;;;;15.50;80.21;102219.84;5046895;28;20053;-75
2023/09/08 05:38:41;;;;;;;12.10;7.40;;;;;;;15.52;80.51;102216.31;5042920;28;20136;-76
2023/09/08 05:41:09;;;;;;;9.45;6.47;;;;;;;15.59;80.70;102222.34;5045200;28;20513;-76
2023/09/08 05:43:36;;;;;;;10.18;5.88;;;;;;;15.58;80.71;102209.22;5046159;28;20114;-77
2023/09/08 05:46:04;;;;;;;12.93;6.85;;;;;;;15.67;80.75;102220.44;5045983;28;20044;-76
2023/09/08 05:48:30;;;;;;;7.07;6.03;;;;;;;15.71;80.76;102224.81;5045367;28;20515;-76
2023/09/08 05:50:58;;;;;;;9.68;6.95;;;;;;;15.76;80.80;102222.09;5043298;28;20060;-76
2023/09/08 05:53:25;;;;;;;11.68;5.75;;;;;;;15.80;80.85;102223.78;5043847;28;20052;-77
2023/09/08 05:55:52;;;;;;;14.13;6.60;;;;;;;15.83;80.92;102222.88;5045050;28;20051;-75
2023/09/08 05:58:20;;;;;;;9.52;6.25;;;;;;;15.88;81.14;102221.91;5048282;28;20131;-77
2023/09/08 06:00:47;;;;;;;11.13;6.53;;;;;;;15.85;80.97;102211.41;5045461;28;20074;-77
2023/09/08 06:03:14;;;;;;;10.98;6.65;;;;;;;15.97;81.09;102215.59;5050692;28;20059;-77
2023/09/08 06:05:41;;;;;;;9.05;6.85;;;;;;;16.01;81.52;102217.25;5053271;28;20059;-77
2023/09/08 06:08:08;;;;;;;10.52;5.65;;;;;;;16.07;81.27;102216.28;5047699;28;20053;-78
2023/09/08 06:10:35;;;;;;;8.93;6.35;;;;;;;16.11;81.27;102215.34;5053955;28;20049;-78
2023/09/08 06:13:02;;;;;;;13.02;6.78;;;;;;;16.16;81.11;102218.75;5050355;28;20056;-76
2023/09/08 06:15:30;;;;;;;8.60;5.75;;;;;;;16.17;81.38;102207.31;5049140;28;20052;-77
2023/09/08 06:17:57;;;;;;;16.80;8.70;;;;;;;16.24;81.40;102214.19;5042824;28;20052;-77
2023/09/08 06:20:24;;;;;;;10.77;6.75;;;;;;;16.29;81.39;102217.63;5049176;28;20052;-76
2023/09/08 06:22:51;;;;;;;11.38;6.93;;;;;;;16.34;81.31;102220.19;5046441;28;20052;-77
2023/09/08 06:25:18;;;;;;;10.13;5.50;;;;;;;16.38;81.47;102217.44;5050236;28;20045;-77
2023/09/08 06:27:45;;;;;;;6.85;6.00;;;;;;;16.44;81.38;102216.44;5045769;28;20703;-77
2023/09/08 06:30:16;;;;;;;10.05;6.05;;;;;;;16.49;81.20;102213.72;5046360;28;20809;-77
2023/09/08 06:32:44;;;;;;;11.52;6.55;;;;;;;16.41;81.07;102198.91;5045881;28;20049;-76
2023/09/08 06:35:11;;;;;;;7.25;5.75;;;;;;;16.58;80.90;102217.03;5045834;28;20417;-76
2023/09/08 06:37:38;;;;;;;8.00;5.05;;;;;;;16.59;81.16;102216.16;5048465;28;20452;-76
2023/09/08 06:40:07;;;;;;;7.63;5.65;;;;;;;16.66;80.78;102211.59;5046489;28;20060;-78
2023/09/08 06:42:34;;;;;;;6.00;4.85;;;;;;;16.72;80.91;102216.75;5050140;28;20055;-78
2023/09/08 06:45:01;;;;;;;6.38;5.20;;;;;;;16.73;80.55;102205.28;5049765;28;20057;-78
2023/09/08 06:47:28;;;;;;;8.38;5.35;;;;;;;16.81;80.37;102216.59;5050714;28;20052;-78
2023/09/08 06:49:56;;;;;;;9.07;5.25;;;;;;;16.85;80.61;102215.63;5052431;28;20045;-81
2023/09/08 06:52:23;;;;;;;7.18;5.13;;;;;;;16.91;80.33;102216.41;5052886;28;20060;-81
2023/09/08 06:54:50;;;;;;;8.95;4.30;;;;;;;16.92;80.38;102202.28;5047438;28;20057;-82
2023/09/08 06:57:19;;;;;;;9.07;5.65;;;;;;;16.94;80.03;102205.78;5050295;28;20045;-80
2023/09/08 06:59:46;;;;;;;5.65;5.03;;;;;;;17.03;80.06;102210.84;5041668;28;20104;-78
2023/09/08 07:02:13;;;;;;;16.60;5.78;;;;;;;17.09;79.85;102210.69;5051833;28;20110;-77
2023/09/08 07:04:40;;;;;;;8.32;5.05;;;;;;;17.13;79.59;102206.22;5049006;28;20047;-79
2023/09/08 07:07:10;;;;;;;9.63;4.80;;;;;;;17.17;79.55;102197.34;5051811;28;20044;-76
2023/09/08 07:09:37;;;;;;;5.53;4.60;;;;;;;17.21;79.50;102199.84;5045418;28;20485;-79
2023/09/08 07:12:06;;;;;;;9.27;4.88;;;;;;;17.25;79.24;102201.53;5050300;28;20049;-79
2023/09/08 07:14:33;;;;;;;6.30;4.82;;;;;;;17.31;79.13;102209.31;5047065;28;20048;-77
2023/09/08 07:17:00;;;;;;;5.93;4.05;;;;;;;17.36;78.94;102213.59;5044347;28;20063;-82
2023/09/08 07:19:27;;;;;;;7.00;4.70;;;;;;;17.34;78.53;102196.94;5049888;28;20087;-80
2023/09/08 07:21:54;;;;;;;5.40;4.75;;;;;;;17.47;78.81;102214.22;5051486;28;20494;-80
2023/09/08 07:24:23;;;;;;;6.80;4.45;;;;;;;17.53;78.45;102200.84;5048466;28;20053;-80
2023/09/08 07:26:51;;;;;;;6.10;4.07;;;;;;;17.57;78.49;102196.38;5045456;28;20053;-77
2023/09/08 07:29:17;;;;;;;6.65;4.38;;;;;;;17.65;78.50;102204.97;5048994;28;20044;-76
2023/09/08 07:31:44;;;;;;;7.70;4.30;;;;;;;17.71;77.94;102212.75;5046324;28;20053;-76
2023/09/08 07:34:11;;;;;;;5.20;4.70;;;;;;;17.76;77.88;102214.38;5045142;28;20421;-76
2023/09/08 07:36:38;;;;;;;7.03;4.25;;;;;;;17.82;77.59;102212.50;5047113;28;20512;-76
2023/09/08 07:39:05;;;;;;;9.98;4.28;;;;;;;17.88;77.73;102217.63;5045394;28;20399;-78
2023/09/08 07:41:34;;;;;;;5.15;4.13;;;;;;;17.94;77.45;102206.91;5046313;28;20190;-79
2023/09/08 07:44:01;;;;;;;6.07;5.47;;;;;;;17.99;77.33;102210.28;5050360;28;20045;-78
2023/09/08 07:46:28;;;;;;;5.25;4.32;;;;;;;18.04;77.03;102197.78;5050993;28;20045;-79
2023/09/08 07:48:55;;;;;;;6.07;4.43;;;;;;;18.03;77.15;102187.28;5051278;28;20049;-80
2023/09/08 07:51:22;;;;;;;4.47;4.07;;;;;;;18.15;77.07;102201.00;5051844;28;20045;-79
2023/09/08 07:53:49;;;;;;;6.72;4.40;;;;;;;18.25;76.97;102206.06;5048237;28;20047;-93
2023/09/08 07:56:16;;;;;;;8.20;4.00;;;;;;;18.31;76.85;102205.91;5051142;28;20051;-94
2023/09/08 07:58:44;;;;;;;5.30;3.33;;;;;;;18.38;76.70;102218.88;5051946;28;20053;-88
2023/09/08 08:01:11;;;;;;;4.93;3.70;;;;;;;18.45;76.43;102216.97;5047648;28;20158;-82
2023/09/08 08:03:38;;;;;;;6.47;3.60;;;;;;;18.53;76.40;102217.59;5049684;28;20057;-89
2023/09/08 08:06:05;;;;;;;6.40;4.28;;;;;;;18.61;76.18;102225.31;5048618;28;20052;-79
2023/09/08 08:08:32;;;;;;;6.32;3.97;;;;;;;18.66;75.69;102224.25;5052304;28;20053;-84
2023/09/08 08:11:00;;;;;;;6.90;3.72;;;;;;;18.74;75.91;102225.88;5046954;28;20047;-77
2023/09/08 08:13:27;;;;;;;6.57;4.10;;;;;;;18.79;75.76;102223.94;5048399;28;20049;-79
2023/09/08 08:15:55;;;;;;;4.97;3.45;;;;;;;18.85;75.33;102229.06;5046497;28;20049;-77
2023/09/08 08:18:22;;;;;;;5.47;4.18;;;;;;;18.92;74.91;102221.78;5045745;28;20375;-76
2023/09/08 08:20:49;;;;;;;6.25;4.18;;;;;;;19.03;74.80;102228.50;5046832;28;20048;-78
2023/09/08 08:23:16;;;;;;;9.55;3.80;;;;;;;19.09;74.50;102225.66;5044983;28;20423;-76
2023/09/08 08:25:43;;;;;;;6.25;3.10;;;;;;;19.14;74.42;102228.16;5048642;28;20037;-77
2023/09/08 08:28:09;;;;;;;4.93;3.75;;;;;;;19.21;74.03;102223.53;5045506;28;20438;-77
2023/09/08 08:30:36;;;;;;;3.83;3.47;;;;;;;19.27;74.14;102215.41;5048661;28;20067;-77
2023/09/08 08:33:05;;;;;;;7.57;3.08;;;;;;;19.33;73.71;102220.50;5046063;28;20096;-77
2023/09/08 08:35:32;;;;;;;8.80;4.15;;;;;;;19.35;73.77;102213.34;5045088;28;20049;-78
2023/09/08 08:38:00;;;;;;;3.60;3.30;;;;;;;19.45;73.22;102217.47;5045029;28;20102;-77
2023/09/08 08:40:28;;;;;;;5.55;4.05;;;;;;;19.52;73.12;102211.06;5044512;28;20048;-78
2023/09/08 08:42:55;;;;;;;4.85;3.58;;;;;;;19.55;72.61;102194.16;5042099;28;20044;-73
2023/09/08 08:45:24;;;;;;;9.20;3.60;;;;;;;19.63;72.87;102196.56;5040461;28;20102;-72
2023/09/08 08:47:51;;;;;;;6.55;3.05;;;;;;;19.68;72.50;102202.59;5045939;28;20049;-73
2023/09/08 08:50:20;;;;;;;4.22;3.42;;;;;;;19.73;72.00;102193.59;5041327;28;20159;-73
2023/09/08 08:52:48;;;;;;;6.85;3.10;;;;;;;19.77;72.11;102197.84;5043829;28;20044;-73
2023/09/08 08:55:15;;;;;;;4.93;2.97;;;;;;;19.82;72.13;102210.97;5044584;28;20045;-73
2023/09/08 08:57:43;;;;;;;4.00;3.33;;;;;;;19.86;72.31;102203.75;5044556;28;20053;-75
2023/09/08 09:00:12;;;;;;;3.00;2.67;;;;;;;19.90;71.89;102200.09;5044176;28;20041;-72
2023/09/08 09:02:41;;;;;;;5.00;3.67;;;;;;;19.94;71.89;102202.56;5044329;28;20064;-77
2023/09/08 09:05:11;;;;;;;3.17;2.88;;;;;;;19.96;71.53;102211.34;5043175;28;20049;-75
2023/09/08 09:07:43;;;;;;;5.05;2.83;;;;;;;20.00;71.40;102215.59;5046471;28;20048;-76
2023/09/08 09:10:10;;;;;;;3.70;2.85;;;;;;;20.05;71.11;102203.97;5044159;28;20052;-76
2023/09/08 09:12:38;;;;;;;5.43;2.90;;;;;;;20.09;71.25;102201.16;5046194;28;20048;-76
2023/09/08 09:15:06;;;;;;;4.18;3.78;;;;;;;20.14;70.33;102199.19;5040440;28;20044;-76
2023/09/08 09:17:35;;;;;;;4.03;3.65;;;;;;;20.18;70.22;102195.53;5046794;28;20053;-76
2023/09/08 09:20:15;;;;;;;5.00;3.28;;;;;;;20.23;70.09;102195.34;5042654;28;20052;-76
2023/09/08 09:22:43;;;;;;;3.78;3.15;;;;;;;20.27;70.00;102194.34;5041873;28;20041;-77
2023/09/08 09:25:11;;;;;;;6.93;4.10;;;;;;;20.31;70.28;102198.59;5042035;28;20045;-74
2023/09/08 09:27:40;;;;;;;4.63;3.10;;;;;;;20.37;70.46;102189.53;5040891;28;20041;-74
2023/09/08 09:30:08;;;;;;;4.07;3.30;;;;;;;20.40;69.78;102186.78;5042334;28;20497;-74
2023/09/08 09:32:35;;;;;;;5.07;2.47;;;;;;;20.44;69.83;102191.06;5043291;28;20111;-77
2023/09/08 09:35:03;;;;;;;3.67;3.38;;;;;;;20.44;70.02;102176.00;5043824;28;20055;-76
2023/09/08 09:37:31;;;;;;;5.43;2.85;;;;;;;20.52;69.72;102188.09;5045079;28;20128;-76
2023/09/08 09:40:04;;;;;;;4.25;3.35;;;;;;;20.56;68.65;102184.47;5043951;28;20461;-77
2023/09/08 09:42:31;;;;;;;5.32;2.60;;;;;;;20.61;68.93;102179.84;5046152;28;20056;-76
2023/09/08 09:44:58;;;;;;;3.60;2.40;;;;;;;20.65;68.57;102176.13;5046557;28;20055;-77
2023/09/08 09:47:25;;;;;;;8.50;2.83;;;;;;;20.68;68.36;102183.97;5042898;28;20053;-76
2023/09/08 09:49:52;;;;;;;6.97;2.38;;;;;;;20.73;68.16;102181.16;5046048;28;20045;-76
2023/09/08 09:52:25;;;;;;;5.22;2.65;;;;;;;20.76;67.97;102173.94;5042618;28;20059;-78
2023/09/08 09:54:54;;;;;;;4.75;2.38;;;;;;;20.82;68.24;102179.00;5046406;28;20133;-78
2023/09/08 09:57:24;;;;;;;6.90;3.03;;;;;;;20.85;68.28;102176.22;5043006;28;21624;-79
2023/09/08 09:59:53;;;;;;;4.65;2.50;;;;;;;20.88;68.27;102178.75;5048160;28;20573;-78
2023/09/08 10:02:21;;;;;;;5.10;2.50;;;;;;;20.92;68.14;102181.28;5046000;28;20049;-79
2023/09/08 10:04:50;;;;;;;3.00;2.70;;;;;;;20.92;67.65;102181.28;5045814;28;20048;-79
2023/09/08 10:07:17;;;;;;;6.55;2.50;;;;;;;20.97;67.92;102185.50;5047568;28;20474;-79
2023/09/08 10:09:44;;;;;;;4.63;2.33;;;;;;;21.01;67.68;102175.63;5046937;28;20040;-78
2023/09/08 10:12:15;;;;;;;4.55;2.70;;;;;;;21.03;67.69;102174.66;5042508;28;20384;-78
2023/09/08 10:14:44;;;;;;;4.50;2.95;;;;;;;21.03;67.75;102168.44;5045032;28;20041;-79
2023/09/08 10:17:16;;;;;;;2.80;2.60;;;;;;;21.11;67.41;102171.66;5046254;28;20045;-78
2023/09/08 10:19:48;;;;;;;6.18;2.55;;;;;;;21.11;66.96;102169.00;5046453;28;20508;-79
2023/09/08 10:22:20;;;;;;;2.80;2.60;;;;;;;21.10;67.04;102159.31;5046871;28;20056;-78
2023/09/08 10:24:49;;;;;;;2.70;2.25;;;;;;;21.21;67.51;102173.03;5043572;28;20052;-78
2023/09/08 10:27:20;;;;;;;3.25;2.53;;;;;;;21.24;67.44;102172.03;5045457;28;20486;-76
2023/09/08 10:29:49;;;;;;;2.80;2.20;;;;;;;21.28;66.68;102171.84;5042368;28;20049;-76
2023/09/08 10:32:18;;;;;;;4.25;2.53;;;;;;;21.31;66.91;102168.19;5044420;28;20049;-77
2023/09/08 10:34:46;;;;;;;5.13;2.50;;;;;;;21.34;66.93;102168.94;5040989;28;20131;-78
2023/09/08 10:37:24;;;;;;;2.30;2.10;;;;;;;21.39;66.34;102170.56;5041564;28;20057;-77
2023/09/08 10:39:52;;;;;;;2.17;1.70;;;;;;;21.38;66.12;102163.53;5042893;28;20052;-76
2023/09/08 10:42:25;;;;;;;3.40;2.42;;;;;;;21.43;65.95;102170.38;5046628;28;20606;-75
2023/09/08 10:45:17;;;;;;;2.95;2.42;;;;;;;21.45;65.54;102170.31;5048101;28;20040;-75
2023/09/08 10:48:00;;;;;;;3.40;3.10;;;;;;;21.47;64.84;102168.47;5046615;28;20099;-75
2023/09/08 10:50:30;;;;;;;8.85;3.08;;;;;;;21.44;65.00;102157.94;5049226;28;20045;-75
2023/09/08 10:53:14;;;;;;;5.00;2.70;;;;;;;21.50;65.21;102169.19;5046715;28;20052;-76
2023/09/08 10:55:47;;;;;;;4.82;2.42;;;;;;;21.51;65.58;102167.38;5045769;28;20060;-76
2023/09/08 10:58:19;;;;;;;3.13;2.85;;;;;;;21.52;65.05;102177.97;5046607;28;20144;-76
2023/09/08 11:00:49;;;;;;;2.95;2.75;;;;;;;21.54;64.73;102177.88;5044539;28;20095;-76
2023/09/08 11:03:27;;;;;;;3.13;2.67;;;;;;;21.55;64.85;102180.50;5047930;28;20057;-76
2023/09/08 11:05:54;;;;;;;2.83;2.38;;;;;;;21.56;64.95;102189.34;5047364;28;20040;-76
2023/09/08 11:08:21;;;;;;;3.70;2.80;;;;;;;21.56;65.10;102173.38;5046024;28;20045;-75
2023/09/08 11:10:50;;;;;;;3.03;2.70;;;;;;;21.60;64.82;102168.78;5048668;28;20041;-76
2023/09/08 11:13:17;;;;;;;3.10;2.80;;;;;;;21.61;64.26;102178.50;5027025;28;20572;-75
2023/09/08 11:15:44;;;;;;;2.55;2.35;;;;;;;21.62;64.13;102186.41;5043641;28;20080;-75
2023/09/08 11:18:13;;;;;;;3.15;2.85;;;;;;;21.64;64.20;102167.75;5047542;28;20049;-76
2023/09/08 11:20:40;;;;;;;3.95;2.60;;;;;;;21.65;63.35;102170.31;5044590;28;20685;-75
2023/09/08 11:23:07;;;;;;;2.53;2.42;;;;;;;21.63;63.14;102172.19;5046047;28;20044;-76
2023/09/08 11:25:35;;;;;;;4.32;2.70;;;;;;;21.60;63.27;102164.34;5044930;28;20064;-74
2023/09/08 11:28:02;;;;;;;7.40;2.63;;;;;;;21.64;63.22;102175.72;5044901;28;20456;-75